Time;durP1;ratioP1;P1;durP2;ratioP2;P2;SDS_P1;SDS_P2;PMS_P1;PMS_P2;Temp;Humidity;BMP_temperature;BMP_pressure;BME280_temperature;BME280_humidity;BME280_pressure;Samples;Min_cycle;Max_cycle;Signal;HPM_P1;HPM_P2
2023/11/22 00:02:49;;;;;;;;;;;;;;;5.49;100.00;95774.16;10593204;27;2701;-68
2023/11/22 00:07:52;;;;;;;;;;;;;;;5.46;100.00;95773.81;10592350;27;2667;-68
2023/11/22 00:12:58;;;;;;;;;;;;;;;5.46;100.00;95787.16;10599081;27;4649;-68
2023/11/22 00:18:03;;;;;;;;;;;;;;;5.52;100.00;95786.19;10591286;27;2646;-69
2023/11/22 00:23:08;;;;;;;;;;;;;;;5.58;100.00;95779.91;10590624;27;2738;-67
2023/11/22 00:28:12;;;;;;;;;;;;;;;5.61;100.00;95788.22;10589339;27;2630;-69
2023/11/22 00:33:15;;;;;;;;;;;;;;;5.59;100.00;95789.50;10594056;27;2560;-68
2023/11/22 00:38:17;;;;;;;;;;;;;;;5.67;100.00;95794.47;10599092;27;2591;-71
2023/11/22 00:43:21;;;;;;;;;;;;;;;5.57;100.00;95780.94;10596511;27;2684;-68
2023/11/22 00:48:23;;;;;;;;;;;;;;;5.56;100.00;95801.47;10594525;27;2640;-68
2023/11/22 00:53:26;;;;;;;;;;;;;;;5.46;100.00;95795.94;10599990;27;2655;-69
2023/11/22 00:58:28;;;;;;;;;;;;;;;5.42;100.00;95789.50;10598177;27;2675;-67
2023/11/22 01:03:31;;;;;;;;;;;;;;;5.51;100.00;95797.91;10597487;27;2715;-69
2023/11/22 01:08:35;;;;;;;;;;;;;;;5.47;100.00;95804.75;10599377;27;2663;-71
2023/11/22 01:13:40;;;;;;;;;;;;;;;5.60;100.00;95809.81;10594031;27;4717;-68
2023/11/22 01:18:46;;;;;;;;;;;;;;;5.65;100.00;95799.19;10588828;27;2555;-67
2023/11/22 01:23:49;;;;;;;;;;;;;;;5.50;100.00;95802.44;10596208;27;2650;-73
2023/11/22 01:28:52;;;;;;;;;;;;;;;5.54;100.00;95808.09;10601811;27;2749;-70
2023/11/22 01:33:54;;;;;;;;;;;;;;;5.42;100.00;95816.97;10597944;27;2727;-68
2023/11/22 01:38:57;;;;;;;;;;;;;;;5.53;100.00;95812.59;10583291;27;2558;-69
2023/11/22 01:44:00;;;;;;;;;;;;;;;5.47;100.00;95823.41;10595003;27;2600;-68
2023/11/22 01:49:02;;;;;;;;;;;;;;;5.40;100.00;95827.03;10589242;27;2585;-67
2023/11/22 01:54:05;;;;;;;;;;;;;;;5.29;100.00;95838.59;10592857;27;2702;-68
2023/11/22 01:59:07;;;;;;;;;;;;;;;5.31;100.00;95838.34;10594106;27;2541;-70
2023/11/22 02:04:10;;;;;;;;;;;;;;;4.81;100.00;95847.78;10593320;27;3041;-68
2023/11/22 02:09:15;;;;;;;;;;;;;;;3.96;100.00;95855.47;10599071;27;2629;-71
2023/11/22 02:14:18;;;;;;;;;;;;;;;3.51;100.00;95864.75;10591675;27;4801;-75
2023/11/22 02:19:21;;;;;;;;;;;;;;;3.08;100.00;95862.28;10573571;27;2660;-68
2023/11/22 02:24:24;;;;;;;;;;;;;;;3.09;100.00;95871.84;10592523;27;2690;-69
2023/11/22 02:29:27;;;;;;;;;;;;;;;2.73;100.00;95888.63;10594955;27;2603;-73
2023/11/22 02:34:30;;;;;;;;;;;;;;;2.75;100.00;95889.22;10596632;27;2595;-75
2023/11/22 02:39:35;;;;;;;;;;;;;;;2.68;100.00;95891.97;10596716;27;2679;-68
2023/11/22 02:44:37;;;;;;;;;;;;;;;2.53;100.00;95902.09;10592993;27;2707;-68
2023/11/22 02:49:40;;;;;;;;;;;;;;;2.36;100.00;95909.03;10594754;27;2548;-69
2023/11/22 02:54:43;;;;;;;;;;;;;;;2.42;100.00;95902.84;10590938;27;2662;-68
2023/11/22 02:59:46;;;;;;;;;;;;;;;2.30;100.00;95921.31;10586197;27;2628;-67
2023/11/22 03:04:49;;;;;;;;;;;;;;;2.08;100.00;95912.91;10586780;27;2635;-67
2023/11/22 03:09:52;;;;;;;;;;;;;;;2.01;100.00;95914.81;10596091;27;2640;-67
2023/11/22 03:15:00;;;;;;;;;;;;;;;1.86;100.00;95915.16;10590942;27;2649;-68
2023/11/22 03:20:03;;;;;;;;;;;;;;;1.99;100.00;95935.44;10591826;27;2565;-67
2023/11/22 03:25:07;;;;;;;;;;;;;;;1.85;100.00;95931.28;10596641;27;2681;-68
2023/11/22 03:30:11;;;;;;;;;;;;;;;1.76;100.00;95928.06;10590925;27;2756;-69
2023/11/22 03:35:15;;;;;;;;;;;;;;;1.82;100.00;95931.69;10599574;27;2527;-70
2023/11/22 03:40:17;;;;;;;;;;;;;;;1.92;100.00;95937.34;10596512;27;2559;-68
2023/11/22 03:45:20;;;;;;;;;;;;;;;1.98;100.00;95949.72;10573068;27;2625;-69
2023/11/22 03:50:23;;;;;;;;;;;;;;;2.07;100.00;95972.28;10592527;27;2603;-69
2023/11/22 03:55:25;;;;;;;;;;;;;;;2.23;100.00;95964.81;10592442;27;2589;-68
2023/11/22 04:00:28;;;;;;;;;;;;;;;2.17;100.00;95969.19;10590341;27;2701;-68
2023/11/22 04:05:31;;;;;;;;;;;;;;;2.02;100.00;95987.22;10591540;27;2688;-67
2023/11/22 04:10:34;;;;;;;;;;;;;;;2.09;100.00;95987.97;10595368;27;2668;-67
2023/11/22 04:15:37;;;;;;;;;;;;;;;2.08;100.00;95992.47;10591890;27;4645;-66
2023/11/22 04:20:40;;;;;;;;;;;;;;;2.26;100.00;95989.09;10594846;27;2565;-69
2023/11/22 04:25:43;;;;;;;;;;;;;;;2.36;100.00;96000.03;10566089;27;2595;-71
2023/11/22 04:30:45;;;;;;;;;;;;;;;2.17;100.00;95985.91;10591777;27;2540;-68
2023/11/22 04:35:48;;;;;;;;;;;;;;;2.19;100.00;96008.72;10595241;27;2610;-68
2023/11/22 04:40:51;;;;;;;;;;;;;;;2.11;100.00;96015.94;10598203;27;2556;-68
2023/11/22 04:45:54;;;;;;;;;;;;;;;1.95;100.00;96019.06;10581068;27;2661;-69
2023/11/22 04:50:57;;;;;;;;;;;;;;;2.04;100.00;96017.81;10588840;27;2654;-68
2023/11/22 04:56:01;;;;;;;;;;;;;;;2.07;100.00;96027.16;10595986;27;2731;-69
2023/11/22 05:01:04;;;;;;;;;;;;;;;1.99;100.00;96044.16;10595025;27;2623;-67
2023/11/22 05:06:08;;;;;;;;;;;;;;;2.05;100.00;96045.94;10589103;27;2586;-71
2023/11/22 05:11:10;;;;;;;;;;;;;;;2.03;100.00;96047.97;10593861;27;2737;-77
2023/11/22 05:16:13;;;;;;;;;;;;;;;1.97;100.00;96048.03;10594709;27;2576;-67
2023/11/22 05:21:16;;;;;;;;;;;;;;;1.96;100.00;96055.16;10604724;27;2663;-67
2023/11/22 05:26:19;;;;;;;;;;;;;;;2.06;100.00;96073.28;10600698;27;2670;-69
2023/11/22 05:31:22;;;;;;;;;;;;;;;1.97;100.00;96075.34;10601103;27;2556;-67
2023/11/22 05:36:25;;;;;;;;;;;;;;;1.93;100.00;96095.38;10602043;27;2657;-67
2023/11/22 05:41:30;;;;;;;;;;;;;;;1.90;100.00;96090.47;10604550;27;2705;-67
2023/11/22 05:46:33;;;;;;;;;;;;;;;1.90;100.00;96101.06;10594675;27;2719;-69
2023/11/22 05:51:38;;;;;;;;;;;;;;;1.86;100.00;96110.50;10598843;27;2629;-69
2023/11/22 05:56:41;;;;;;;;;;;;;;;1.99;100.00;96115.72;10596398;27;2580;-66
2023/11/22 06:01:44;;;;;;;;;;;;;;;1.84;100.00;96123.94;10591775;27;3052;-66
2023/11/22 06:06:47;;;;;;;;;;;;;;;1.87;100.00;96128.03;10595569;27;2652;-67
2023/11/22 06:11:50;;;;;;;;;;;;;;;1.90;100.00;96124.94;10597296;27;2624;-67
2023/11/22 06:16:53;;;;;;;;;;;;;;;1.98;100.00;96131.88;10594795;27;2587;-68
2023/11/22 06:21:55;;;;;;;;;;;;;;;1.99;100.00;96134.28;10595773;27;2751;-67
2023/11/22 06:27:00;;;;;;;;;;;;;;;2.22;100.00;96140.91;10595743;27;2611;-68
2023/11/22 06:32:02;;;;;;;;;;;;;;;2.07;100.00;96147.31;10596001;27;2576;-66
2023/11/22 06:37:08;;;;;;;;;;;;;;;1.93;100.00;96153.69;10594293;27;2684;-67
2023/11/22 06:42:11;;;;;;;;;;;;;;;2.00;100.00;96157.13;10599935;27;2579;-66
2023/11/22 06:47:13;;;;;;;;;;;;;;;1.88;100.00;96172.06;10592498;27;2668;-70
2023/11/22 06:52:17;;;;;;;;;;;;;;;1.89;100.00;96179.00;10591837;27;2647;-76
2023/11/22 06:57:28;;;;;;;;;;;;;;;1.97;100.00;96194.66;10597655;27;2637;-68
2023/11/22 07:02:31;;;;;;;;;;;;;;;1.97;100.00;96201.78;10593817;27;2753;-72
2023/11/22 07:07:33;;;;;;;;;;;;;;;1.89;100.00;96195.69;10591897;27;2547;-70
2023/11/22 07:12:36;;;;;;;;;;;;;;;1.72;100.00;96199.84;10570400;27;4676;-66
2023/11/22 07:17:39;;;;;;;;;;;;;;;1.74;100.00;96205.75;10587224;27;2619;-72
2023/11/22 07:22:44;;;;;;;;;;;;;;;1.83;100.00;96212.44;10597044;27;2601;-68
2023/11/22 07:27:47;;;;;;;;;;;;;;;1.73;100.00;96225.31;10596184;27;2628;-67
2023/11/22 07:32:51;;;;;;;;;;;;;;;1.94;100.00;96232.22;10596799;27;2555;-69
2023/11/22 07:37:55;;;;;;;;;;;;;;;2.10;100.00;96249.47;10593338;27;2806;-67
2023/11/22 07:42:58;;;;;;;;;;;;;;;2.02;100.00;96263.78;10608292;27;2634;-68
2023/11/22 07:48:00;;;;;;;;;;;;;;;2.03;100.00;96265.41;10595484;27;2859;-67
2023/11/22 07:53:04;;;;;;;;;;;;;;;2.04;100.00;96280.31;10594581;27;2621;-66
2023/11/22 07:58:08;;;;;;;;;;;;;;;1.90;100.00;96273.41;10597346;27;2555;-65
2023/11/22 08:03:15;;;;;;;;;;;;;;;1.79;100.00;96279.34;10596440;27;2557;-67
2023/11/22 08:08:18;;;;;;;;;;;;;;;1.72;100.00;96289.97;10595472;27;2568;-66
2023/11/22 08:13:22;;;;;;;;;;;;;;;1.74;100.00;96314.41;10593713;27;5387;-70
2023/11/22 08:18:27;;;;;;;;;;;;;;;1.77;100.00;96314.00;10597052;27;2581;-66
2023/11/22 08:23:32;;;;;;;;;;;;;;;1.72;100.00;96327.06;10590920;27;2659;-68
2023/11/22 08:28:35;;;;;;;;;;;;;;;1.72;100.00;96326.22;10591418;27;2659;-67
2023/11/22 08:33:37;;;;;;;;;;;;;;;1.67;100.00;96323.41;10588671;27;2650;-68
2023/11/22 08:38:41;;;;;;;;;;;;;;;1.68;100.00;96311.78;10594817;27;2659;-67
2023/11/22 08:43:47;;;;;;;;;;;;;;;1.67;100.00;96323.41;10589141;27;2651;-68
2023/11/22 08:48:50;;;;;;;;;;;;;;;1.76;100.00;96344.19;10588216;27;2650;-68
2023/11/22 08:53:53;;;;;;;;;;;;;;;1.58;100.00;96363.31;10574413;27;2635;-67
2023/11/22 08:58:56;;;;;;;;;;;;;;;1.48;100.00;96362.94;10594123;27;2556;-66
2023/11/22 09:03:58;;;;;;;;;;;;;;;1.53;100.00;96360.50;10597427;27;2595;-67
2023/11/22 09:09:02;;;;;;;;;;;;;;;1.90;100.00;96366.19;10594126;27;2724;-68
2023/11/22 09:14:05;;;;;;;;;;;;;;;1.76;100.00;96380.47;10592407;27;4681;-68
2023/11/22 09:19:08;;;;;;;;;;;;;;;1.84;100.00;96390.88;10577725;27;2785;-68
2023/11/22 09:24:13;;;;;;;;;;;;;;;1.68;100.00;96400.03;10595094;27;2610;-67
2023/11/22 09:29:16;;;;;;;;;;;;;;;1.94;100.00;96396.59;10595231;27;2681;-66
2023/11/22 09:34:19;;;;;;;;;;;;;;;1.64;100.00;96406.75;10590664;27;2692;-66
2023/11/22 09:39:24;;;;;;;;;;;;;;;1.60;100.00;96413.50;10589270;27;2628;-66
2023/11/22 09:44:27;;;;;;;;;;;;;;;1.55;100.00;96418.56;10594351;27;2662;-68
2023/11/22 09:49:31;;;;;;;;;;;;;;;1.52;100.00;96422.44;10574389;27;2660;-67
2023/11/22 09:54:33;;;;;;;;;;;;;;;1.47;100.00;96422.22;10575597;27;2621;-67
2023/11/22 09:59:37;;;;;;;;;;;;;;;1.53;100.00;96404.72;10591616;27;2675;-68
2023/11/22 10:04:40;;;;;;;;;;;;;;;1.71;100.00;96415.53;10593495;27;2631;-67
2023/11/22 10:09:43;;;;;;;;;;;;;;;1.76;100.00;96418.41;10593664;27;2716;-71
2023/11/22 10:14:46;;;;;;;;;;;;;;;1.95;100.00;96410.66;10592564;27;4681;-66
2023/11/22 10:19:52;;;;;;;;;;;;;;;2.40;100.00;96403.69;10593647;27;2716;-71
2023/11/22 10:24:59;;;;;;;;;;;;;;;2.00;100.00;96403.72;10592690;27;2895;-68
2023/11/22 10:30:09;;;;;;;;;;;;;;;2.33;100.00;96409.00;10600097;27;2622;-69
2023/11/22 10:35:14;;;;;;;;;;;;;;;2.33;100.00;96400.22;10575721;27;2593;-69
2023/11/22 10:40:17;;;;;;;;;;;;;;;2.39;100.00;96402.88;10595747;27;2606;-66
2023/11/22 10:45:19;;;;;;;;;;;;;;;2.46;100.00;96397.56;10576865;27;3067;-65
2023/11/22 10:50:23;;;;;;;;;;;;;;;2.55;100.00;96409.59;10592307;27;2631;-66
2023/11/22 10:55:28;;;;;;;;;;;;;;;2.70;100.00;96412.00;10593375;27;2641;-68
2023/11/22 11:00:30;;;;;;;;;;;;;;;2.43;100.00;96419.22;10591919;27;2580;-68
2023/11/22 11:05:34;;;;;;;;;;;;;;;2.69;100.00;96429.78;10591875;27;2615;-69
2023/11/22 11:10:37;;;;;;;;;;;;;;;2.54;100.00;96437.13;10571515;27;2713;-70
2023/11/22 11:15:40;;;;;;;;;;;;;;;2.70;100.00;96436.72;10589793;27;4668;-71
2023/11/22 11:20:44;;;;;;;;;;;;;;;2.79;100.00;96431.97;10596395;27;2620;-67
2023/11/22 11:25:47;;;;;;;;;;;;;;;2.98;100.00;96443.56;10593128;27;2628;-70
2023/11/22 11:30:51;;;;;;;;;;;;;;;3.05;100.00;96431.09;10589230;27;2610;-67
2023/11/22 11:35:53;;;;;;;;;;;;;;;3.22;100.00;96421.63;10591155;27;2590;-69
2023/11/22 11:40:56;;;;;;;;;;;;;;;3.16;100.00;96417.16;10593593;27;2651;-68
2023/11/22 11:46:00;;;;;;;;;;;;;;;3.17;100.00;96418.78;10590469;27;2572;-67
2023/11/22 11:51:03;;;;;;;;;;;;;;;2.99;100.00;96416.00;10592815;27;2721;-68
2023/11/22 11:56:07;;;;;;;;;;;;;;;2.97;100.00;96400.25;10587624;27;2625;-68
2023/11/22 12:01:09;;;;;;;;;;;;;;;2.79;100.00;96394.00;10587320;27;2598;-68
2023/11/22 12:06:11;;;;;;;;;;;;;;;2.57;100.00;96402.22;10591478;27;2738;-68
2023/11/22 12:11:15;;;;;;;;;;;;;;;2.97;100.00;96418.03;10589934;27;2645;-70
2023/11/22 12:16:18;;;;;;;;;;;;;;;2.85;100.00;96430.34;10592419;27;4736;-69
2023/11/22 12:21:22;;;;;;;;;;;;;;;2.62;100.00;96433.47;10591213;27;2685;-67
2023/11/22 12:26:24;;;;;;;;;;;;;;;2.46;100.00;96445.31;10569147;27;2687;-68
2023/11/22 12:31:29;;;;;;;;;;;;;;;2.25;100.00;96448.19;10601134;27;2550;-66
2023/11/22 12:36:32;;;;;;;;;;;;;;;2.37;100.00;96459.84;10578380;27;2696;-68
2023/11/22 12:41:35;;;;;;;;;;;;;;;2.41;100.00;96445.13;10574659;27;2708;-68
2023/11/22 12:46:38;;;;;;;;;;;;;;;2.28;100.00;96442.47;10600459;27;2659;-67
2023/11/22 12:51:42;;;;;;;;;;;;;;;2.41;100.00;96448.59;10596531;27;2588;-68
2023/11/22 12:56:45;;;;;;;;;;;;;;;2.29;100.00;96454.72;10597011;27;2699;-67
2023/11/22 13:01:47;;;;;;;;;;;;;;;2.19;100.00;96470.25;10591152;27;2779;-69
2023/11/22 13:06:51;;;;;;;;;;;;;;;2.04;100.00;96455.34;10576580;27;2997;-70
2023/11/22 13:11:53;;;;;;;;;;;;;;;2.28;100.00;96453.09;10592862;27;2576;-68
2023/11/22 13:16:57;;;;;;;;;;;;;;;2.29;100.00;96474.13;10593806;27;2618;-68
2023/11/22 13:22:00;;;;;;;;;;;;;;;2.25;100.00;96475.53;10593424;27;2627;-76
2023/11/22 13:27:02;;;;;;;;;;;;;;;2.20;100.00;96477.19;10599395;27;2630;-68
2023/11/22 13:32:07;;;;;;;;;;;;;;;2.19;100.00;96471.06;10596135;27;2622;-67
2023/11/22 13:37:10;;;;;;;;;;;;;;;2.51;100.00;96457.97;10599234;27;2700;-68
2023/11/22 13:42:13;;;;;;;;;;;;;;;2.50;100.00;96454.50;10597642;27;2718;-69
2023/11/22 13:47:16;;;;;;;;;;;;;;;2.64;100.00;96461.44;10596575;27;2528;-67
2023/11/22 13:52:18;;;;;;;;;;;;;;;2.47;100.00;96475.31;10596694;27;2569;-68
2023/11/22 13:57:21;;;;;;;;;;;;;;;2.49;100.00;96470.66;10595644;27;2574;-68
2023/11/22 14:02:24;;;;;;;;;;;;;;;2.39;100.00;96479.00;10600749;27;2724;-67
2023/11/22 14:07:30;;;;;;;;;;;;;;;2.22;100.00;96469.81;10591514;27;2737;-67
2023/11/22 14:12:33;;;;;;;;;;;;;;;2.27;100.00;96468.19;10596106;27;4721;-71
2023/11/22 14:17:35;;;;;;;;;;;;;;;2.24;100.00;96479.22;10592271;27;2744;-67
2023/11/22 14:22:38;;;;;;;;;;;;;;;2.09;100.00;96487.34;10594844;27;2896;-68
2023/11/22 14:27:41;;;;;;;;;;;;;;;2.10;100.00;96499.63;10594676;27;2741;-67
2023/11/22 14:32:44;;;;;;;;;;;;;;;2.12;100.00;96497.56;10593035;27;2578;-68
2023/11/22 14:37:47;;;;;;;;;;;;;;;2.07;100.00;96510.63;10598240;27;2634;-67
2023/11/22 14:42:51;;;;;;;;;;;;;;;2.28;100.00;96508.78;10596755;27;2626;-68
2023/11/22 14:47:56;;;;;;;;;;;;;;;2.16;100.00;96517.38;10572775;27;2558;-67
2023/11/22 14:52:59;;;;;;;;;;;;;;;2.07;100.00;96515.91;10594576;27;2633;-67
2023/11/22 14:58:02;;;;;;;;;;;;;;;2.14;100.00;96516.75;10595179;27;2568;-68
2023/11/22 15:03:07;;;;;;;;;;;;;;;1.99;100.00;96542.63;10592605;27;2586;-67
2023/11/22 15:08:10;;;;;;;;;;;;;;;2.10;100.00;96557.97;10589687;27;2698;-68
2023/11/22 15:13:15;;;;;;;;;;;;;;;2.04;100.00;96568.56;10594424;27;4642;-68
2023/11/22 15:18:17;;;;;;;;;;;;;;;1.98;100.00;96574.66;10591611;27;2718;-67
2023/11/22 15:23:21;;;;;;;;;;;;;;;2.09;100.00;96566.91;10574197;27;2621;-67
2023/11/22 15:28:24;;;;;;;;;;;;;;;2.19;100.00;96558.59;10592109;27;2576;-69
2023/11/22 15:33:27;;;;;;;;;;;;;;;2.25;100.00;96549.00;10597779;27;2592;-69
2023/11/22 15:38:30;;;;;;;;;;;;;;;2.12;100.00;96532.06;10593173;27;2627;-69
2023/11/22 15:43:33;;;;;;;;;;;;;;;2.11;100.00;96517.16;10598003;27;2610;-68
2023/11/22 15:48:36;;;;;;;;;;;;;;;2.15;100.00;96528.97;10588652;27;2619;-68
2023/11/22 15:53:39;;;;;;;;;;;;;;;1.95;100.00;96522.84;10597737;27;2639;-68
2023/11/22 15:58:42;;;;;;;;;;;;;;;2.07;100.00;96525.72;10592800;27;2709;-67
2023/11/22 16:03:44;;;;;;;;;;;;;;;2.14;100.00;96532.66;10594743;27;2651;-68
2023/11/22 16:08:47;;;;;;;;;;;;;;;2.04;100.00;96542.88;10594252;27;2592;-68
2023/11/22 16:13:50;;;;;;;;;;;;;;;2.10;100.00;96557.97;10594062;27;4748;-68
2023/11/22 16:18:52;;;;;;;;;;;;;;;2.12;100.00;96577.16;10589453;27;2616;-70
2023/11/22 16:23:55;;;;;;;;;;;;;;;2.08;100.00;96589.16;10596247;27;2586;-71
2023/11/22 16:28:57;;;;;;;;;;;;;;;2.13;100.00;96613.25;10592852;27;2737;-68
2023/11/22 16:34:01;;;;;;;;;;;;;;;2.26;100.00;96624.91;10590532;27;2714;-70
2023/11/22 16:39:03;;;;;;;;;;;;;;;2.34;100.00;96638.00;10574209;27;2557;-69
2023/11/22 16:44:21;;;;;;;;;;;;;;;2.33;100.00;96631.06;10595995;27;2630;-69
2023/11/22 16:49:24;;;;;;;;;;;;;;;2.21;100.00;96630.81;10590298;27;2615;-69
2023/11/22 16:54:27;;;;;;;;;;;;;;;2.06;100.00;96638.94;10593275;27;2619;-70
2023/11/22 16:59:30;;;;;;;;;;;;;;;2.08;100.00;96634.25;10589400;27;2673;-68
2023/11/22 17:04:33;;;;;;;;;;;;;;;2.03;100.00;96631.38;10583374;27;2770;-69
2023/11/22 17:09:36;;;;;;;;;;;;;;;2.21;100.00;96622.03;10589919;27;2671;-72
2023/11/22 17:14:39;;;;;;;;;;;;;;;2.17;100.00;96637.56;10589736;27;4758;-69
2023/11/22 17:19:42;;;;;;;;;;;;;;;2.26;100.00;96630.22;10580393;27;2798;-69
2023/11/22 17:24:46;;;;;;;;;;;;;;;2.27;100.00;96651.25;10580075;27;2863;-68
2023/11/22 17:29:50;;;;;;;;;;;;;;;2.21;100.00;96638.78;10598859;27;2844;-68
2023/11/22 17:34:57;;;;;;;;;;;;;;;2.22;100.00;96636.94;10606809;27;2725;-69
2023/11/22 17:40:13;;;;;;;;;;;;;;;2.20;100.00;96642.44;10601736;27;2575;-68
2023/11/22 17:45:27;;;;;;;;;;;;;;;2.21;100.00;96653.88;10590093;27;2779;-68
2023/11/22 17:50:32;;;;;;;;;;;;;;;2.16;100.00;96659.78;10595207;27;2838;-69
2023/11/22 17:55:37;;;;;;;;;;;;;;;2.07;100.00;96667.09;10594271;27;2894;-69
2023/11/22 18:00:45;;;;;;;;;;;;;;;2.12;100.00;96656.72;10577166;27;3006;-70
2023/11/22 18:05:47;;;;;;;;;;;;;;;2.07;100.00;96669.75;10593926;27;3100;-68
2023/11/22 18:10:53;;;;;;;;;;;;;;;2.23;100.00;96673.06;10605771;27;2751;-68
2023/11/22 18:15:56;;;;;;;;;;;;;;;2.25;100.00;96679.00;10609226;27;4736;-68
2023/11/22 18:21:00;;;;;;;;;;;;;;;2.26;100.00;96683.28;10608945;27;2861;-69
2023/11/22 18:26:06;;;;;;;;;;;;;;;2.20;100.00;96681.41;10602015;27;1664;-68
2023/11/22 18:31:11;;;;;;;;;;;;;;;2.14;100.00;96686.50;10588363;27;2242;-67
2023/11/22 18:36:19;;;;;;;;;;;;;;;2.09;100.00;96701.38;10597028;27;1734;-69
2023/11/22 18:41:22;;;;;;;;;;;;;;;2.17;100.00;96712.66;10608422;27;1602;-70
2023/11/22 18:46:27;;;;;;;;;;;;;;;2.02;100.00;96709.28;10603191;27;1515;-68
2023/11/22 18:51:30;;;;;;;;;;;;;;;2.14;100.00;96713.03;10601293;27;1917;-69
2023/11/22 18:56:33;;;;;;;;;;;;;;;2.04;100.00;96712.59;10604413;27;1494;-69
2023/11/22 19:01:38;;;;;;;;;;;;;;;2.07;100.00;96714.00;10603671;27;1555;-69
2023/11/22 19:06:47;;;;;;;;;;;;;;;1.95;100.00;96715.59;10606132;27;1587;-69
2023/11/22 19:11:54;;;;;;;;;;;;;;;1.96;100.00;96718.03;10592643;27;1906;-69
2023/11/22 19:16:58;;;;;;;;;;;;;;;2.14;100.00;96730.78;10609780;27;1458;-75
2023/11/22 19:22:01;;;;;;;;;;;;;;;2.12;100.00;96716.91;10605884;27;2571;-70
2023/11/22 19:27:05;;;;;;;;;;;;;;;2.11;100.00;96721.38;10607241;27;1714;-70
2023/11/22 19:32:08;;;;;;;;;;;;;;;2.02;100.00;96695.22;10608878;27;1975;-70
2023/11/22 19:37:11;;;;;;;;;;;;;;;2.21;100.00;96691.81;10601459;27;1621;-70
2023/11/22 19:42:13;;;;;;;;;;;;;;;2.24;100.00;96686.16;10608833;27;1502;-67
2023/11/22 19:47:16;;;;;;;;;;;;;;;2.32;100.00;96690.44;10603000;27;1998;-70
2023/11/22 19:52:19;;;;;;;;;;;;;;;2.36;100.00;96699.66;10608455;27;1917;-71
2023/11/22 19:57:21;;;;;;;;;;;;;;;2.29;100.00;96709.41;10605045;27;2460;-69
2023/11/22 20:02:24;;;;;;;;;;;;;;;2.24;100.00;96717.16;10606690;27;1668;-71
2023/11/22 20:07:27;;;;;;;;;;;;;;;2.17;100.00;96723.25;10605883;27;1497;-72
2023/11/22 20:12:30;;;;;;;;;;;;;;;2.30;100.00;96706.56;10593786;27;4507;-74
2023/11/22 20:17:36;;;;;;;;;;;;;;;2.31;100.00;96694.13;10592410;27;2563;-69
2023/11/22 20:22:39;;;;;;;;;;;;;;;2.40;100.00;96674.34;10590140;27;2732;-67
2023/11/22 20:27:42;;;;;;;;;;;;;;;2.49;100.00;96672.34;10589987;27;2620;-71
2023/11/22 20:32:45;;;;;;;;;;;;;;;2.53;100.00;96677.03;10590589;27;2568;-69
2023/11/22 20:37:47;;;;;;;;;;;;;;;2.55;100.00;96680.31;10586353;27;2698;-69
2023/11/22 20:42:50;;;;;;;;;;;;;;;2.56;100.00;96676.63;10584825;27;2622;-69
2023/11/22 20:47:53;;;;;;;;;;;;;;;2.63;100.00;96674.81;10581429;27;2655;-69
2023/11/22 20:52:58;;;;;;;;;;;;;;;2.67;100.00;96662.78;10597240;27;2631;-68
2023/11/22 20:58:01;;;;;;;;;;;;;;;2.44;100.00;96652.53;10599699;27;2524;-68
2023/11/22 21:03:04;;;;;;;;;;;;;;;2.59;100.00;96651.53;10596665;27;2576;-69
2023/11/22 21:08:06;;;;;;;;;;;;;;;2.56;100.00;96662.56;10555798;27;2667;-69
2023/11/22 21:13:20;;;;;;;;;;;;;;;2.54;100.00;96660.06;10554578;27;4665;-69
2023/11/22 21:18:24;;;;;;;;;;;;;;;2.42;100.00;96657.22;10551462;27;2658;-69
2023/11/22 21:23:27;;;;;;;;;;;;;;;2.54;100.00;96652.13;10551182;28;2656;-68
2023/11/22 21:28:31;;;;;;;;;;;;;;;2.52;100.00;96656.00;10560342;27;2658;-69
2023/11/22 21:33:34;;;;;;;;;;;;;;;2.55;100.00;96645.81;10549832;27;2608;-68
2023/11/22 21:38:37;;;;;;;;;;;;;;;2.45;100.00;96645.38;10534448;27;2755;-69
2023/11/22 21:43:39;;;;;;;;;;;;;;;2.37;100.00;96658.84;10557113;27;2608;-69
2023/11/22 21:48:42;;;;;;;;;;;;;;;2.29;100.00;96643.06;10554971;28;2659;-68
2023/11/22 21:53:45;;;;;;;;;;;;;;;2.20;100.00;96654.91;10551804;28;2727;-69
2023/11/22 21:58:47;;;;;;;;;;;;;;;2.22;100.00;96666.94;10554333;27;2619;-69
2023/11/22 22:03:50;;;;;;;;;;;;;;;2.21;100.00;96675.91;10560088;27;2615;-71
2023/11/22 22:08:55;;;;;;;;;;;;;;;2.14;100.00;96675.88;10594556;27;2615;-68
2023/11/22 22:13:58;;;;;;;;;;;;;;;2.20;100.00;96676.13;10598370;27;4801;-69
2023/11/22 22:19:00;;;;;;;;;;;;;;;2.12;100.00;96664.66;10598106;27;2626;-72
2023/11/22 22:24:04;;;;;;;;;;;;;;;1.93;100.00;96672.56;10596449;27;2656;-69
2023/11/22 22:29:06;;;;;;;;;;;;;;;1.93;100.00;96657.47;10595782;27;2680;-70
2023/11/22 22:34:10;;;;;;;;;;;;;;;1.84;100.00;96659.44;10592841;27;2675;-70
2023/11/22 22:39:13;;;;;;;;;;;;;;;1.99;100.00;96661.16;10587549;27;2700;-70
2023/11/22 22:44:16;;;;;;;;;;;;;;;1.98;100.00;96652.38;10597540;27;2704;-67
2023/11/22 22:49:19;;;;;;;;;;;;;;;1.90;100.00;96655.19;10591462;27;2580;-69
2023/11/22 22:54:21;;;;;;;;;;;;;;;1.99;100.00;96646.06;10596188;27;3124;-69
2023/11/22 22:59:25;;;;;;;;;;;;;;;2.06;100.00;96640.78;10590405;27;2619;-70
2023/11/22 23:04:32;;;;;;;;;;;;;;;2.16;100.00;96643.84;10592716;27;2610;-68
2023/11/22 23:09:36;;;;;;;;;;;;;;;2.11;100.00;96649.78;10593721;27;2621;-76
2023/11/22 23:14:38;;;;;;;;;;;;;;;2.06;100.00;96646.09;10595346;27;4761;-70
2023/11/22 23:19:41;;;;;;;;;;;;;;;1.98;100.00;96644.44;10592987;27;2574;-69
2023/11/22 23:24:44;;;;;;;;;;;;;;;1.98;100.00;96648.91;10592919;27;2655;-68
2023/11/22 23:29:46;;;;;;;;;;;;;;;2.06;100.00;96641.59;10591180;27;2595;-70
2023/11/22 23:34:49;;;;;;;;;;;;;;;2.07;100.00;96637.91;10593555;27;2560;-68
2023/11/22 23:39:51;;;;;;;;;;;;;;;2.05;100.00;96629.34;10590236;27;2597;-68
2023/11/22 23:44:55;;;;;;;;;;;;;;;1.97;100.00;96629.50;10584011;27;2631;-68
2023/11/22 23:49:57;;;;;;;;;;;;;;;2.01;100.00;96620.16;10591598;27;2564;-68
2023/11/22 23:55:00;;;;;;;;;;;;;;;2.00;100.00;96615.88;10593343;27;2619;-69
